createdAt,value
2018-04-27T00:00:26.965Z,9.80
2018-04-27T00:02:54.431Z,9.90
2018-04-27T00:05:21.889Z,9.90
2018-04-27T00:07:49.487Z,9.90
2018-04-27T00:10:17.735Z,9.90
2018-04-27T00:12:45.191Z,9.80
2018-04-27T00:15:12.807Z,9.80
2018-04-27T00:17:40.259Z,9.70
2018-04-27T00:20:07.723Z,9.70
2018-04-27T00:22:35.182Z,9.70
2018-04-27T00:25:02.679Z,9.60
2018-04-27T00:27:30.235Z,9.60
2018-04-27T00:29:57.691Z,9.60
2018-04-27T00:32:25.252Z,9.60
2018-04-27T00:34:52.708Z,9.60
2018-04-27T00:37:20.258Z,9.70
2018-04-27T00:39:47.823Z,9.80
2018-04-27T00:42:15.386Z,9.80
2018-04-27T00:44:42.935Z,9.70
2018-04-27T00:47:10.391Z,9.30
2018-04-27T00:49:37.854Z,9.20
2018-04-27T00:52:05.312Z,9.20
2018-04-27T00:54:32.829Z,9.10
2018-04-27T00:57:00.291Z,9.10
2018-04-27T00:59:27.800Z,9.10
2018-04-27T01:01:55.263Z,9.10
2018-04-27T01:04:23.523Z,9.10
2018-04-27T01:06:51.012Z,9.00
2018-04-27T01:09:18.526Z,9.00
2018-04-27T01:11:45.985Z,9.00
2018-04-27T01:14:13.445Z,9.00
2018-04-27T01:16:40.904Z,8.90
2018-04-27T01:19:08.519Z,8.90
2018-04-27T01:21:36.023Z,8.90
2018-04-27T01:24:04.254Z,9.00
2018-04-27T01:26:31.707Z,9.00
2018-04-27T01:28:59.171Z,9.00
2018-04-27T01:31:26.723Z,8.90
2018-04-27T01:33:54.179Z,8.90
2018-04-27T01:36:21.631Z,8.90
2018-04-27T01:38:49.095Z,9.00
2018-04-27T01:41:16.602Z,8.90
2018-04-27T01:43:44.828Z,8.80
2018-04-27T01:46:12.389Z,8.80
2018-04-27T01:48:39.847Z,8.80
2018-04-27T01:51:07.312Z,8.80
2018-04-27T01:53:34.776Z,8.60
2018-04-27T01:56:02.240Z,8.60
2018-04-27T01:58:29.707Z,8.50
2018-04-27T02:00:57.923Z,8.40
2018-04-27T02:03:25.379Z,8.30
2018-04-27T02:05:52.836Z,8.30
2018-04-27T02:08:20.357Z,8.10
2018-04-27T02:10:47.823Z,8.00
2018-04-27T02:13:15.294Z,8.00
2018-04-27T02:15:43.508Z,8.10
2018-04-27T02:18:10.999Z,8.10
2018-04-27T02:20:38.446Z,8.00
2018-04-27T02:23:05.895Z,8.00
2018-04-27T02:25:33.379Z,8.00
2018-04-27T02:28:00.955Z,7.90
2018-04-27T02:30:29.187Z,7.80
2018-04-27T02:32:56.662Z,7.80
2018-04-27T02:35:24.228Z,7.90
2018-04-27T02:37:51.680Z,7.90
2018-04-27T02:40:19.256Z,8.00
2018-04-27T02:42:47.474Z,7.90
2018-04-27T02:45:14.963Z,7.80
2018-04-27T02:47:42.525Z,7.90
2018-04-27T02:50:10.006Z,7.90
2018-04-27T02:52:38.230Z,7.90
2018-04-27T02:55:05.773Z,7.80
2018-04-27T02:57:33.215Z,7.80
2018-04-27T03:00:00.669Z,7.80
2018-04-27T03:02:28.127Z,7.80
2018-04-27T03:04:55.589Z,7.90
2018-04-27T03:07:23.054Z,7.90
2018-04-27T03:09:50.537Z,7.90
2018-04-27T03:12:18.010Z,7.90
2018-04-27T03:14:45.579Z,7.80
2018-04-27T03:17:13.132Z,7.80
2018-04-27T03:19:40.597Z,7.80
2018-04-27T03:22:08.139Z,7.80
2018-04-27T03:24:35.712Z,7.80
2018-04-27T03:27:03.179Z,7.90
2018-04-27T03:29:30.639Z,7.90
2018-04-27T03:31:58.853Z,7.80
2018-04-27T03:34:26.395Z,7.80
2018-04-27T03:36:53.908Z,7.90
2018-04-27T03:39:21.469Z,7.90
2018-04-27T03:41:48.933Z,7.80
2018-04-27T03:44:16.475Z,7.80
2018-04-27T03:46:44.035Z,7.80
2018-04-27T03:49:11.601Z,7.80
2018-04-27T03:51:39.063Z,7.80
2018-04-27T03:54:06.519Z,7.80
2018-04-27T03:56:34.064Z,7.80
2018-04-27T03:59:01.587Z,7.80
2018-04-27T04:01:41.236Z,7.80
2018-04-27T04:04:20.612Z,7.80
2018-04-27T04:06:48.198Z,7.80
2018-04-27T04:09:16.500Z,7.70
2018-04-27T04:11:44.002Z,7.70
2018-04-27T04:14:11.455Z,7.70
2018-04-27T04:16:38.944Z,7.80
2018-04-27T04:19:07.159Z,7.80
2018-04-27T04:21:34.622Z,7.80
2018-04-27T04:24:02.104Z,7.90
2018-04-27T04:26:29.660Z,7.90
2018-04-27T04:28:57.124Z,8.00
2018-04-27T04:31:24.674Z,8.00
2018-04-27T04:33:52.135Z,8.10
2018-04-27T04:36:19.587Z,8.20
2018-04-27T04:38:47.142Z,8.20
2018-04-27T04:41:14.602Z,8.30
2018-04-27T04:43:42.059Z,8.30
2018-04-27T04:46:09.530Z,8.40
2018-04-27T04:48:37.761Z,8.40
2018-04-27T04:51:05.224Z,8.40
2018-04-27T04:53:32.683Z,8.40
2018-04-27T04:56:00.139Z,8.50
2018-04-27T04:58:27.603Z,8.60
2018-04-27T05:00:55.066Z,8.60
2018-04-27T05:03:22.525Z,8.60
2018-04-27T05:05:49.988Z,8.60
2018-04-27T05:08:17.616Z,8.60
2018-04-27T05:10:45.022Z,8.70
2018-04-27T05:13:12.487Z,8.60
2018-04-27T05:15:40.712Z,8.40
2018-04-27T05:18:28.938Z,8.30
2018-04-27T05:20:56.414Z,8.30
2018-04-27T05:23:23.898Z,8.20
2018-04-27T05:25:51.347Z,8.10
2018-04-27T05:28:18.823Z,8.00
2018-04-27T05:30:47.048Z,8.10
2018-04-27T05:33:14.540Z,8.10
2018-04-27T05:35:42.008Z,8.00
2018-04-27T05:38:09.463Z,8.10
2018-04-27T05:40:37.026Z,8.20
2018-04-27T05:43:05.253Z,8.40
2018-04-27T05:45:32.720Z,8.40
2018-04-27T05:48:00.170Z,8.40
2018-04-27T05:50:27.636Z,8.40
2018-04-27T05:52:55.094Z,8.60
2018-04-27T05:55:22.564Z,8.60
2018-04-27T05:57:50.028Z,8.60
2018-04-27T06:00:17.583Z,8.70
2018-04-27T06:02:45.234Z,8.80
2018-04-27T06:05:12.703Z,9.00
2018-04-27T06:07:40.261Z,9.10
2018-04-27T06:10:07.756Z,9.30
2018-04-27T06:12:35.188Z,9.50
2018-04-27T06:15:03.423Z,9.70
2018-04-27T06:17:30.878Z,9.70
2018-04-27T06:19:58.367Z,9.90
2018-04-27T06:22:25.818Z,9.80
2018-04-27T06:24:53.376Z,9.90
2018-04-27T06:27:20.834Z,9.90
2018-04-27T06:29:49.811Z,9.90
2018-04-27T06:32:17.283Z,9.90
2018-04-27T06:34:44.751Z,10.20
2018-04-27T06:37:12.988Z,10.20
2018-04-27T06:39:40.528Z,10.10
2018-04-27T06:42:08.046Z,10.30
2018-04-27T06:44:35.528Z,10.30
2018-04-27T06:47:03.053Z,10.30
2018-04-27T06:49:30.531Z,10.60
2018-04-27T06:51:58.762Z,10.70
2018-04-27T06:54:26.214Z,10.60
2018-04-27T06:56:53.803Z,10.80
2018-04-27T06:59:21.399Z,11.00
2018-04-27T07:01:49.643Z,11.30
2018-04-27T07:04:17.862Z,11.40
2018-04-27T07:06:45.342Z,11.40
2018-04-27T07:09:12.807Z,11.60
2018-04-27T07:11:40.316Z,11.80
2018-04-27T07:14:07.841Z,11.80
2018-04-27T07:16:35.343Z,11.80
2018-04-27T07:19:02.808Z,11.90
2018-04-27T07:21:30.296Z,12.00
2018-04-27T07:23:57.755Z,12.20
2018-04-27T07:26:25.246Z,12.50
2018-04-27T07:28:53.491Z,12.90
2018-04-27T07:31:21.004Z,12.80
2018-04-27T07:33:48.506Z,13.00
2018-04-27T07:36:15.991Z,13.10
2018-04-27T07:38:43.467Z,13.30
2018-04-27T07:41:10.959Z,13.40
2018-04-27T07:43:38.447Z,13.50
2018-04-27T07:46:06.692Z,13.50
2018-04-27T07:48:34.150Z,13.50
2018-04-27T07:51:01.686Z,13.50
2018-04-27T07:53:29.191Z,13.50
2018-04-27T07:55:57.414Z,13.00
2018-04-27T07:58:24.892Z,12.90
2018-04-27T08:00:52.380Z,13.00
2018-04-27T08:03:19.934Z,13.10
2018-04-27T08:05:47.498Z,13.20
2018-04-27T08:08:15.815Z,13.30
2018-04-27T08:10:43.247Z,13.20
2018-04-27T08:13:11.479Z,13.80
2018-04-27T08:15:38.962Z,13.70
2018-04-27T08:18:06.447Z,14.00
2018-04-27T08:20:33.930Z,14.10
2018-04-27T08:23:01.432Z,14.10
2018-04-27T08:25:30.793Z,13.90
2018-04-27T08:27:58.293Z,14.00
2018-04-27T08:30:25.767Z,14.10
2018-04-27T08:32:54.099Z,14.30
2018-04-27T08:35:21.662Z,14.20
2018-04-27T08:37:49.259Z,14.00
2018-04-27T08:40:17.597Z,14.00
2018-04-27T08:42:45.304Z,14.00
2018-04-27T08:45:13.630Z,14.20
2018-04-27T08:47:41.398Z,14.20
2018-04-27T08:50:09.160Z,14.40
2018-04-27T08:52:36.758Z,14.80
2018-04-27T08:55:05.015Z,15.20
2018-04-27T08:57:32.593Z,15.10
2018-04-27T09:00:00.862Z,15.40
2018-04-27T09:02:28.411Z,15.30
2018-04-27T09:04:55.891Z,15.50
2018-04-27T09:07:23.370Z,15.70
2018-04-27T09:09:50.876Z,16.00
2018-04-27T09:12:18.391Z,16.40
2018-04-27T09:14:45.889Z,16.80
2018-04-27T09:17:13.362Z,17.20
2018-04-27T09:19:40.838Z,17.00
2018-04-27T09:22:09.065Z,16.80
2018-04-27T09:24:36.545Z,16.70
2018-04-27T09:27:04.015Z,16.90
2018-04-27T09:29:31.482Z,17.20
2018-04-27T09:31:59.717Z,17.90
2018-04-27T09:34:27.294Z,17.80
2018-04-27T09:36:54.756Z,17.70
2018-04-27T09:39:22.239Z,17.80
2018-04-27T09:41:50.462Z,18.00
2018-04-27T09:44:17.941Z,18.00
2018-04-27T09:46:46.170Z,18.40
2018-04-27T09:49:13.634Z,18.30
2018-04-27T09:51:41.100Z,18.60
2018-04-27T09:54:08.565Z,18.90
2018-04-27T09:56:36.030Z,18.80
2018-04-27T09:59:03.506Z,18.50
2018-04-27T10:01:30.961Z,18.70
2018-04-27T10:03:58.513Z,19.30
2018-04-27T10:06:26.021Z,19.20
2018-04-27T10:08:53.528Z,19.20
2018-04-27T10:11:21.090Z,18.80
2018-04-27T10:13:48.630Z,18.40
2018-04-27T10:16:16.089Z,18.60
2018-04-27T10:18:43.610Z,18.80
2018-04-27T10:21:11.121Z,19.50
2018-04-27T10:23:38.580Z,19.70
2018-04-27T10:26:06.146Z,18.90
2018-04-27T10:28:34.371Z,18.40
2018-04-27T10:31:01.876Z,18.30
2018-04-27T10:33:29.315Z,18.40
2018-04-27T10:35:57.560Z,18.20
2018-04-27T10:38:25.039Z,18.20
2018-04-27T10:40:52.740Z,18.20
2018-04-27T10:43:20.955Z,19.40
2018-04-27T10:45:48.438Z,19.30
2018-04-27T10:48:16.017Z,19.90
2018-04-27T10:50:43.471Z,19.30
2018-04-27T10:53:11.007Z,17.90
2018-04-27T10:55:38.575Z,17.00
2018-04-27T10:58:06.043Z,16.70
2018-04-27T11:00:34.283Z,16.70
2018-04-27T11:03:01.768Z,16.60
2018-04-27T11:05:29.243Z,17.20
2018-04-27T11:07:57.499Z,18.80
2018-04-27T11:10:25.060Z,18.80
2018-04-27T11:12:53.332Z,19.30
2018-04-27T11:15:22.302Z,19.60
2018-04-27T11:17:49.760Z,19.60
2018-04-27T11:20:17.334Z,19.40
2018-04-27T11:22:45.515Z,18.80
2018-04-27T11:25:13.028Z,18.70
2018-04-27T11:27:40.504Z,18.90
2018-04-27T11:30:07.998Z,19.00
2018-04-27T11:32:36.231Z,18.30
2018-04-27T11:35:04.312Z,18.30
2018-04-27T11:37:32.075Z,18.30
2018-04-27T11:39:59.887Z,18.90
2018-04-27T11:42:28.226Z,18.90
2018-04-27T11:44:55.738Z,18.80
2018-04-27T11:47:23.252Z,19.30
2018-04-27T11:49:52.224Z,20.50
2018-04-27T11:52:19.704Z,20.50
2018-04-27T11:54:47.944Z,21.30
2018-04-27T11:57:15.450Z,21.20
2018-04-27T11:59:42.911Z,20.80
2018-04-27T12:02:11.858Z,19.60
2018-04-27T12:04:39.310Z,19.50
2018-04-27T12:07:06.856Z,19.40
2018-04-27T12:09:34.319Z,19.80
2018-04-27T12:12:01.813Z,20.10
2018-04-27T12:14:29.272Z,20.00
2018-04-27T12:16:56.744Z,19.90
2018-04-27T12:19:24.996Z,20.30
2018-04-27T12:21:52.560Z,20.30
2018-04-27T12:24:20.164Z,20.70
2018-04-27T12:26:48.370Z,19.80
2018-04-27T12:29:15.833Z,19.70
2018-04-27T12:31:43.381Z,19.20
2018-04-27T12:34:10.760Z,19.10
2018-04-27T12:36:39.756Z,19.20
2018-04-27T12:39:08.728Z,19.20
2018-04-27T12:41:36.340Z,19.20
2018-04-27T12:44:04.565Z,19.00
2018-04-27T12:46:32.134Z,18.90
2018-04-27T12:48:59.596Z,19.10
2018-04-27T12:51:27.066Z,19.30
2018-04-27T12:53:55.306Z,19.20
2018-04-27T12:56:22.767Z,19.10
2018-04-27T12:58:50.248Z,19.30
2018-04-27T13:01:17.720Z,19.70
2018-04-27T13:03:45.959Z,20.20
2018-04-27T13:06:13.414Z,20.10
2018-04-27T13:08:40.878Z,20.00
2018-04-27T13:11:08.447Z,19.80
2018-04-27T13:13:37.417Z,19.10
2018-04-27T13:16:04.921Z,19.10
2018-04-27T13:18:33.152Z,19.00
2018-04-27T13:21:00.617Z,19.00
2018-04-27T13:23:28.140Z,19.00
2018-04-27T13:25:55.616Z,18.90
2018-04-27T13:28:23.095Z,18.60
2018-04-27T13:30:50.607Z,18.60
2018-04-27T13:33:18.152Z,18.80
2018-04-27T13:35:45.636Z,18.70
2018-04-27T13:38:13.098Z,18.20
2018-04-27T13:40:40.572Z,18.00
2018-04-27T13:43:08.165Z,18.20
2018-04-27T13:45:36.490Z,18.60
2018-04-27T13:48:04.081Z,18.60
2018-04-27T13:50:31.707Z,18.70
2018-04-27T13:52:59.257Z,18.60
2018-04-27T13:55:27.512Z,18.40
2018-04-27T13:57:55.803Z,18.40
2018-04-27T14:00:23.423Z,18.40
2018-04-27T14:02:51.088Z,18.40
2018-04-27T14:05:18.560Z,18.50
2018-04-27T14:07:46.898Z,19.30
2018-04-27T14:10:14.488Z,19.30
2018-04-27T14:12:42.839Z,19.80
2018-04-27T14:15:10.404Z,19.70
2018-04-27T14:17:37.959Z,19.80
2018-04-27T14:20:05.483Z,19.80
2018-04-27T14:22:33.695Z,19.60
2018-04-27T14:25:01.150Z,19.50
2018-04-27T14:27:29.424Z,19.60
2018-04-27T14:29:56.878Z,19.50
2018-04-27T14:32:24.370Z,19.70
2018-04-27T14:34:52.887Z,20.00
2018-04-27T14:37:20.335Z,19.90
2018-04-27T14:39:47.799Z,20.10
2018-04-27T14:42:15.266Z,20.20
2018-04-27T14:44:42.739Z,20.10
2018-04-27T14:47:10.194Z,19.80
2018-04-27T14:49:37.768Z,19.40
2018-04-27T14:52:05.315Z,19.50
2018-04-27T14:54:32.786Z,19.70
2018-04-27T14:57:00.291Z,19.80
2018-04-27T14:59:27.750Z,19.80
2018-04-27T15:01:55.221Z,19.60
2018-04-27T15:04:22.764Z,19.30
2018-04-27T15:06:50.231Z,19.30
2018-04-27T15:09:17.691Z,19.10
2018-04-27T15:11:45.191Z,19.10
2018-04-27T15:14:12.647Z,18.90
2018-04-27T15:16:40.287Z,18.60
2018-04-27T15:19:07.772Z,18.60
2018-04-27T15:21:36.086Z,18.50
2018-04-27T15:24:03.557Z,18.40
2018-04-27T15:26:31.027Z,18.50
2018-04-27T15:28:58.482Z,18.30
2018-04-27T15:31:25.935Z,18.60
2018-04-27T15:33:53.412Z,19.20
2018-04-27T15:36:20.971Z,19.60
2018-04-27T15:38:49.203Z,20.40
2018-04-27T15:41:16.671Z,20.40
2018-04-27T15:43:44.142Z,20.60
2018-04-27T15:46:11.600Z,20.60
2018-04-27T15:48:39.184Z,20.40
2018-04-27T15:51:06.638Z,20.20
2018-04-27T15:53:34.143Z,20.10
2018-04-27T15:56:01.608Z,19.70
2018-04-27T15:58:29.100Z,19.70
2018-04-27T16:00:57.743Z,19.40
2018-04-27T16:03:25.206Z,19.40
2018-04-27T16:05:52.694Z,19.50
2018-04-27T16:08:20.155Z,19.60
2018-04-27T16:10:48.388Z,20.10
2018-04-27T16:13:21.728Z,20.00
2018-04-27T16:15:49.180Z,20.40
2018-04-27T16:18:16.748Z,20.60
2018-04-27T16:20:44.255Z,20.20
2018-04-27T16:23:11.761Z,19.90
2018-04-27T16:25:40.090Z,19.90
2018-04-27T16:28:07.566Z,19.80
2018-04-27T16:30:35.060Z,19.90
2018-04-27T16:33:02.611Z,20.00
2018-04-27T16:35:30.070Z,20.10
2018-04-27T16:37:57.531Z,20.40
2018-04-27T16:40:25.085Z,20.60
2018-04-27T16:42:52.638Z,20.80
2018-04-27T16:45:20.095Z,21.10
2018-04-27T16:47:48.319Z,21.00
2018-04-27T16:50:15.887Z,20.90
2018-04-27T16:52:43.350Z,20.80
2018-04-27T16:55:10.821Z,20.90
2018-04-27T16:57:38.286Z,21.00
2018-04-27T17:00:05.758Z,20.90
2018-04-27T17:02:33.216Z,20.50
2018-04-27T17:05:00.764Z,20.20
2018-04-27T17:07:28.308Z,19.90
2018-04-27T17:09:55.788Z,19.70
2018-04-27T17:12:23.351Z,19.80
2018-04-27T17:14:50.810Z,19.80
2018-04-27T17:17:18.269Z,19.80
2018-04-27T17:19:45.733Z,19.80
2018-04-27T17:22:13.962Z,19.70
2018-04-27T17:24:41.418Z,19.70
2018-04-27T17:27:08.907Z,19.50
2018-04-27T17:29:36.359Z,19.40
2018-04-27T17:32:04.745Z,19.00
2018-04-27T17:34:32.309Z,19.00
2018-04-27T17:37:00.024Z,18.80
2018-04-27T17:39:27.321Z,18.60
2018-04-27T17:41:54.876Z,18.40
2018-04-27T17:44:23.202Z,18.10
2018-04-27T17:46:50.611Z,18.10
2018-04-27T17:49:18.168Z,18.00
2018-04-27T17:51:46.405Z,17.90
2018-04-27T17:54:13.869Z,17.80
2018-04-27T17:56:41.371Z,17.80
2018-04-27T17:59:09.624Z,17.60
2018-04-27T18:01:37.191Z,17.60
2018-04-27T18:04:05.454Z,17.50
2018-04-27T18:06:32.913Z,17.40
2018-04-27T18:09:00.387Z,17.40
2018-04-27T18:11:29.361Z,17.20
2018-04-27T18:13:56.954Z,17.20
2018-04-27T18:16:25.186Z,17.10
2018-04-27T18:18:52.650Z,17.00
2018-04-27T18:21:20.123Z,17.00
2018-04-27T18:23:48.380Z,16.90
2018-04-27T18:26:15.962Z,16.80
2018-04-27T18:28:44.951Z,16.70
2018-04-27T18:31:13.174Z,16.70
2018-04-27T18:33:40.671Z,16.60
2018-04-27T18:36:08.350Z,16.60
2018-04-27T18:38:36.740Z,16.50
2018-04-27T18:41:05.099Z,16.40
2018-04-27T18:43:32.660Z,16.30
2018-04-27T18:46:01.157Z,16.20
2018-04-27T18:48:29.520Z,16.10
2018-04-27T18:50:57.782Z,16.00
2018-04-27T18:53:25.242Z,15.90
2018-04-27T18:55:52.732Z,16.00
2018-04-27T18:58:20.270Z,15.90
2018-04-27T19:00:47.837Z,15.80
2018-04-27T19:03:18.810Z,15.70
2018-04-27T19:05:47.044Z,15.60
2018-04-27T19:08:15.315Z,15.60
2018-04-27T19:10:45.476Z,15.50
2018-04-27T19:13:13.581Z,15.50
2018-04-27T19:15:41.064Z,15.50
2018-04-27T19:18:08.515Z,15.40
2018-04-27T19:20:36.999Z,15.40
2018-04-27T19:23:09.167Z,15.40
2018-04-27T19:25:44.204Z,15.30
2018-04-27T19:28:11.664Z,15.30
2018-04-27T19:30:39.923Z,15.20
2018-04-27T19:33:07.391Z,15.20
2018-04-27T19:35:34.857Z,15.20
2018-04-27T19:38:03.112Z,15.10
2018-04-27T19:40:30.714Z,15.10
2018-04-27T19:42:58.361Z,15.10
2018-04-27T19:45:25.792Z,15.10
2018-04-27T19:47:53.260Z,15.00
2018-04-27T19:50:21.523Z,15.00
2018-04-27T19:52:49.136Z,14.90
2018-04-27T19:55:16.595Z,14.90
2018-04-27T19:57:44.061Z,14.90
2018-04-27T20:00:11.553Z,14.90
2018-04-27T20:02:39.132Z,14.90
2018-04-27T20:05:09.015Z,14.80
2018-04-27T20:07:36.582Z,14.80
2018-04-27T20:10:06.331Z,14.80
2018-04-27T20:12:33.807Z,14.80
2018-04-27T20:15:01.276Z,14.70
2018-04-27T20:17:37.406Z,14.70
2018-04-27T20:20:15.187Z,14.60
2018-04-27T20:22:44.059Z,14.60
2018-04-27T20:25:12.228Z,14.50
2018-04-27T20:27:43.508Z,14.60
2018-04-27T20:30:12.365Z,14.50
2018-04-27T20:32:43.227Z,14.50
2018-04-27T20:35:15.094Z,14.50
2018-04-27T20:37:42.576Z,14.40
2018-04-27T20:40:14.751Z,14.40
2018-04-27T20:42:42.242Z,14.30
2018-04-27T20:45:10.498Z,14.40
2018-04-27T20:47:38.957Z,14.30
2018-04-27T20:50:06.558Z,14.40
2018-04-27T20:52:37.256Z,14.30
2018-04-27T20:55:08.304Z,14.30
2018-04-27T20:57:35.791Z,14.30
2018-04-27T21:00:03.273Z,14.30
2018-04-27T21:02:31.504Z,14.30
2018-04-27T21:04:58.973Z,14.20
2018-04-27T21:07:26.541Z,14.30
2018-04-27T21:09:54.005Z,14.30
2018-04-27T21:12:26.655Z,14.10
2018-04-27T21:14:54.115Z,14.10
2018-04-27T21:17:21.596Z,14.10
2018-04-27T21:19:49.828Z,14.10
2018-04-27T21:22:17.300Z,14.00
2018-04-27T21:24:44.820Z,14.00
2018-04-27T21:27:12.326Z,14.00
2018-04-27T21:29:39.902Z,14.00
2018-04-27T21:32:08.160Z,13.90
2018-04-27T21:34:35.619Z,13.90
2018-04-27T21:37:03.092Z,14.00
2018-04-27T21:39:31.332Z,14.00
2018-04-27T21:42:02.395Z,13.90
2018-04-27T21:44:35.487Z,14.00
2018-04-27T21:47:23.471Z,14.00
2018-04-27T21:49:51.078Z,13.90
2018-04-27T21:52:20.230Z,13.90
2018-04-27T21:54:48.631Z,13.80
2018-04-27T21:57:25.730Z,13.90
2018-04-27T21:59:54.930Z,13.90
2018-04-27T22:05:31.211Z,13.80
2018-04-27T22:07:58.666Z,13.90
2018-04-27T22:10:26.135Z,13.90
2018-04-27T22:12:54.407Z,13.80
2018-04-27T22:15:21.873Z,13.80
2018-04-27T22:17:49.420Z,13.80
2018-04-27T22:20:21.588Z,13.70
2018-04-27T22:22:49.148Z,13.70
2018-04-27T22:25:22.356Z,13.70
2018-04-27T22:27:51.327Z,13.70
2018-04-27T22:33:22.280Z,13.70
2018-04-27T22:35:52.204Z,13.60
2018-04-27T22:41:17.014Z,13.50
2018-04-27T22:43:47.228Z,13.40
2018-04-27T22:46:14.699Z,13.40
2018-04-27T22:48:45.678Z,13.50
2018-04-27T22:51:15.647Z,13.40
2018-04-27T22:53:49.758Z,13.40
2018-04-27T22:56:23.782Z,13.30
2018-04-27T22:58:51.351Z,13.30
2018-04-27T23:01:19.603Z,13.30
2018-04-27T23:03:47.064Z,13.20
2018-04-27T23:06:14.610Z,13.30
2018-04-27T23:08:43.011Z,13.30
2018-04-27T23:11:28.175Z,13.30
2018-04-27T23:16:52.700Z,13.30
2018-04-27T23:19:21.670Z,13.20
2018-04-27T23:21:56.823Z,13.10
2018-04-27T23:24:25.065Z,13.20
2018-04-27T23:26:53.190Z,13.20
2018-04-27T23:29:20.661Z,13.20
2018-04-27T23:31:49.741Z,13.20
2018-04-27T23:34:22.683Z,13.30
2018-04-27T23:36:50.154Z,13.20
2018-04-27T23:39:18.429Z,13.10
2018-04-27T23:41:46.708Z,13.10
2018-04-27T23:44:14.346Z,13.00
2018-04-27T23:46:41.823Z,13.10
2018-04-27T23:49:09.289Z,13.00
2018-04-27T23:51:37.570Z,12.90
2018-04-27T23:54:07.674Z,12.80
2018-04-27T23:56:51.547Z,12.90
2018-04-27T23:59:31.582Z,12.80
